Stewartsville, Missouri
Current Conditions -  °F | °C
As of 2:53 PM on Wednesday 26 Nov 2014 (Local Time) from KSTJ Reporting Station
Overcast Overcast  
Wind Chill: 21°   Ceiling: 1800
Heat Index: 34°   Visibility: 10mi
Dew Point: 27°   Wind: 25mph
Humidity: 75%   Direction: 330°NNW
Pressure: 30.1"   Gusts: 37mph
Location:  39.75°N, 94.5°W
Report Text: KSTJ 262053Z 33022G32KT 10SM OVC018 01/M03 A3010 RMK AO2 PK WND 33034/2027 SLP200 T00111028 53033
Loading
Personal Weather Stations






























Interactive Weather Map New forecast layout! Learn more

10-Day Weather Forecast

Advertisements
Track Severe Weather on mobile